sensor_id;sensor_type;location;lat;lon;timestamp;P1;durP1;ratioP1;P2;durP2;ratioP2
28078;SDS011;15388;42.238;24.684;2023-09-19T00:00:16;9.20;;;5.90;;
28078;SDS011;15388;42.238;24.684;2023-09-19T00:05:12;11.03;;;6.27;;
28078;SDS011;15388;42.238;24.684;2023-09-19T00:07:37;7.90;;;6.13;;
28078;SDS011;15388;42.238;24.684;2023-09-19T00:10:03;7.35;;;6.10;;
28078;SDS011;15388;42.238;24.684;2023-09-19T00:12:29;9.95;;;6.68;;
28078;SDS011;15388;42.238;24.684;2023-09-19T00:14:55;11.02;;;6.43;;
28078;SDS011;15388;42.238;24.684;2023-09-19T00:17:21;6.80;;;5.97;;
28078;SDS011;15388;42.238;24.684;2023-09-19T00:19:47;9.23;;;6.68;;
28078;SDS011;15388;42.238;24.684;2023-09-19T00:22:16;10.52;;;6.15;;
28078;SDS011;15388;42.238;24.684;2023-09-19T00:24:43;10.32;;;6.38;;
28078;SDS011;15388;42.238;24.684;2023-09-19T00:27:09;10.68;;;6.63;;
28078;SDS011;15388;42.238;24.684;2023-09-19T00:29:34;12.20;;;7.50;;
28078;SDS011;15388;42.238;24.684;2023-09-19T00:32:00;8.73;;;6.38;;
28078;SDS011;15388;42.238;24.684;2023-09-19T00:34:28;10.90;;;6.90;;
28078;SDS011;15388;42.238;24.684;2023-09-19T00:36:54;12.27;;;7.70;;
28078;SDS011;15388;42.238;24.684;2023-09-19T00:39:20;9.25;;;6.70;;
28078;SDS011;15388;42.238;24.684;2023-09-19T00:41:47;10.73;;;7.35;;
28078;SDS011;15388;42.238;24.684;2023-09-19T00:44:12;14.50;;;7.45;;
28078;SDS011;15388;42.238;24.684;2023-09-19T00:46:38;11.38;;;7.28;;
28078;SDS011;15388;42.238;24.684;2023-09-19T00:49:04;11.13;;;7.55;;
28078;SDS011;15388;42.238;24.684;2023-09-19T00:51:34;14.60;;;7.70;;
28078;SDS011;15388;42.238;24.684;2023-09-19T00:54:00;14.40;;;8.05;;
28078;SDS011;15388;42.238;24.684;2023-09-19T00:56:27;18.27;;;8.43;;
28078;SDS011;15388;42.238;24.684;2023-09-19T00:58:53;10.15;;;7.82;;
28078;SDS011;15388;42.238;24.684;2023-09-19T01:01:18;13.18;;;7.95;;
28078;SDS011;15388;42.238;24.684;2023-09-19T01:03:45;9.73;;;8.00;;
28078;SDS011;15388;42.238;24.684;2023-09-19T01:06:11;9.18;;;8.10;;
28078;SDS011;15388;42.238;24.684;2023-09-19T01:08:37;13.88;;;8.60;;
28078;SDS011;15388;42.238;24.684;2023-09-19T01:16:28;13.82;;;8.23;;
28078;SDS011;15388;42.238;24.684;2023-09-19T01:24:51;16.23;;;8.88;;
28078;SDS011;15388;42.238;24.684;2023-09-19T01:30:26;17.98;;;8.45;;
28078;SDS011;15388;42.238;24.684;2023-09-19T01:32:56;13.30;;;8.55;;
28078;SDS011;15388;42.238;24.684;2023-09-19T01:35:22;16.10;;;8.57;;
28078;SDS011;15388;42.238;24.684;2023-09-19T01:37:47;16.02;;;7.88;;
28078;SDS011;15388;42.238;24.684;2023-09-19T01:40:14;10.30;;;7.22;;
28078;SDS011;15388;42.238;24.684;2023-09-19T01:47:56;11.38;;;8.18;;
28078;SDS011;15388;42.238;24.684;2023-09-19T01:50:42;13.00;;;8.63;;
28078;SDS011;15388;42.238;24.684;2023-09-19T01:53:21;12.10;;;9.63;;
28078;SDS011;15388;42.238;24.684;2023-09-19T01:55:50;14.52;;;9.32;;
28078;SDS011;15388;42.238;24.684;2023-09-19T01:58:20;18.05;;;8.98;;
28078;SDS011;15388;42.238;24.684;2023-09-19T02:00:51;15.93;;;9.93;;
28078;SDS011;15388;42.238;24.684;2023-09-19T02:03:18;14.90;;;9.73;;
28078;SDS011;15388;42.238;24.684;2023-09-19T02:05:51;19.98;;;9.88;;
28078;SDS011;15388;42.238;24.684;2023-09-19T02:08:19;13.98;;;10.70;;
28078;SDS011;15388;42.238;24.684;2023-09-19T02:10:45;12.87;;;9.40;;
28078;SDS011;15388;42.238;24.684;2023-09-19T02:13:20;17.00;;;10.35;;
28078;SDS011;15388;42.238;24.684;2023-09-19T02:15:50;19.35;;;9.77;;
28078;SDS011;15388;42.238;24.684;2023-09-19T02:18:16;16.20;;;10.55;;
28078;SDS011;15388;42.238;24.684;2023-09-19T02:20:42;16.00;;;10.40;;
28078;SDS011;15388;42.238;24.684;2023-09-19T02:23:07;18.40;;;10.70;;
28078;SDS011;15388;42.238;24.684;2023-09-19T02:25:34;15.43;;;10.93;;
28078;SDS011;15388;42.238;24.684;2023-09-19T02:28:00;16.10;;;10.80;;
28078;SDS011;15388;42.238;24.684;2023-09-19T02:30:28;24.83;;;11.38;;
28078;SDS011;15388;42.238;24.684;2023-09-19T02:32:53;26.02;;;11.63;;
28078;SDS011;15388;42.238;24.684;2023-09-19T02:35:19;26.80;;;13.85;;
28078;SDS011;15388;42.238;24.684;2023-09-19T02:37:45;37.25;;;13.15;;
28078;SDS011;15388;42.238;24.684;2023-09-19T02:40:10;27.00;;;12.55;;
28078;SDS011;15388;42.238;24.684;2023-09-19T02:42:53;15.43;;;9.95;;
28078;SDS011;15388;42.238;24.684;2023-09-19T02:45:19;16.20;;;10.45;;
28078;SDS011;15388;42.238;24.684;2023-09-19T02:47:48;22.38;;;12.10;;
28078;SDS011;15388;42.238;24.684;2023-09-19T02:50:14;19.67;;;12.00;;
28078;SDS011;15388;42.238;24.684;2023-09-19T02:52:41;22.90;;;12.55;;
28078;SDS011;15388;42.238;24.684;2023-09-19T02:55:14;18.20;;;12.32;;
28078;SDS011;15388;42.238;24.684;2023-09-19T02:57:48;20.25;;;11.60;;
28078;SDS011;15388;42.238;24.684;2023-09-19T03:00:16;39.95;;;13.50;;
28078;SDS011;15388;42.238;24.684;2023-09-19T03:02:50;40.50;;;16.27;;
28078;SDS011;15388;42.238;24.684;2023-09-19T03:05:18;25.17;;;13.23;;
28078;SDS011;15388;42.238;24.684;2023-09-19T03:07:44;27.48;;;16.15;;
28078;SDS011;15388;42.238;24.684;2023-09-19T03:10:10;26.40;;;16.50;;
28078;SDS011;15388;42.238;24.684;2023-09-19T03:12:36;21.13;;;14.60;;
28078;SDS011;15388;42.238;24.684;2023-09-19T03:15:02;24.58;;;15.75;;
28078;SDS011;15388;42.238;24.684;2023-09-19T03:17:29;25.08;;;14.50;;
28078;SDS011;15388;42.238;24.684;2023-09-19T03:19:55;25.38;;;17.20;;
28078;SDS011;15388;42.238;24.684;2023-09-19T03:22:20;28.10;;;17.27;;
28078;SDS011;15388;42.238;24.684;2023-09-19T03:24:46;43.30;;;18.98;;
28078;SDS011;15388;42.238;24.684;2023-09-19T03:27:11;47.63;;;18.88;;
28078;SDS011;15388;42.238;24.684;2023-09-19T03:29:39;48.20;;;20.48;;
28078;SDS011;15388;42.238;24.684;2023-09-19T03:32:05;31.27;;;19.95;;
28078;SDS011;15388;42.238;24.684;2023-09-19T03:34:30;60.35;;;23.90;;
28078;SDS011;15388;42.238;24.684;2023-09-19T03:36:56;93.35;;;31.77;;
28078;SDS011;15388;42.238;24.684;2023-09-19T03:39:21;64.35;;;28.90;;
28078;SDS011;15388;42.238;24.684;2023-09-19T03:41:46;62.45;;;28.92;;
28078;SDS011;15388;42.238;24.684;2023-09-19T03:44:12;65.70;;;34.25;;
28078;SDS011;15388;42.238;24.684;2023-09-19T03:46:38;68.05;;;30.45;;
28078;SDS011;15388;42.238;24.684;2023-09-19T03:49:03;73.90;;;33.78;;
28078;SDS011;15388;42.238;24.684;2023-09-19T03:51:29;52.08;;;27.77;;
28078;SDS011;15388;42.238;24.684;2023-09-19T03:53:54;51.85;;;24.73;;
28078;SDS011;15388;42.238;24.684;2023-09-19T03:56:20;56.72;;;22.80;;
28078;SDS011;15388;42.238;24.684;2023-09-19T03:58:45;43.78;;;21.50;;
28078;SDS011;15388;42.238;24.684;2023-09-19T04:01:11;47.97;;;19.65;;
28078;SDS011;15388;42.238;24.684;2023-09-19T04:03:38;46.08;;;18.50;;
28078;SDS011;15388;42.238;24.684;2023-09-19T04:06:13;40.95;;;15.30;;
28078;SDS011;15388;42.238;24.684;2023-09-19T04:08:39;53.23;;;17.37;;
28078;SDS011;15388;42.238;24.684;2023-09-19T04:11:05;96.75;;;22.85;;
28078;SDS011;15388;42.238;24.684;2023-09-19T04:13:30;46.33;;;19.10;;
28078;SDS011;15388;42.238;24.684;2023-09-19T04:15:56;33.97;;;16.08;;
28078;SDS011;15388;42.238;24.684;2023-09-19T04:18:21;26.40;;;14.85;;
28078;SDS011;15388;42.238;24.684;2023-09-19T04:20:51;23.50;;;13.65;;
28078;SDS011;15388;42.238;24.684;2023-09-19T04:23:17;16.00;;;12.90;;
28078;SDS011;15388;42.238;24.684;2023-09-19T04:28:10;22.08;;;13.32;;
28078;SDS011;15388;42.238;24.684;2023-09-19T04:30:36;29.45;;;11.55;;
28078;SDS011;15388;42.238;24.684;2023-09-19T04:33:02;23.35;;;11.80;;
28078;SDS011;15388;42.238;24.684;2023-09-19T04:35:28;26.05;;;12.43;;
28078;SDS011;15388;42.238;24.684;2023-09-19T04:37:56;17.77;;;11.02;;
28078;SDS011;15388;42.238;24.684;2023-09-19T04:40:22;14.63;;;11.68;;
28078;SDS011;15388;42.238;24.684;2023-09-19T04:42:55;17.08;;;12.13;;
28078;SDS011;15388;42.238;24.684;2023-09-19T04:45:22;23.65;;;12.50;;
28078;SDS011;15388;42.238;24.684;2023-09-19T04:47:48;17.63;;;12.40;;
28078;SDS011;15388;42.238;24.684;2023-09-19T04:50:13;18.33;;;12.77;;
28078;SDS011;15388;42.238;24.684;2023-09-19T04:52:39;14.55;;;10.25;;
28078;SDS011;15388;42.238;24.684;2023-09-19T04:55:07;17.25;;;11.43;;
28078;SDS011;15388;42.238;24.684;2023-09-19T04:57:38;17.50;;;11.55;;
28078;SDS011;15388;42.238;24.684;2023-09-19T05:00:04;19.42;;;10.98;;
28078;SDS011;15388;42.238;24.684;2023-09-19T05:02:37;17.35;;;11.50;;
28078;SDS011;15388;42.238;24.684;2023-09-19T05:05:02;15.23;;;11.55;;
28078;SDS011;15388;42.238;24.684;2023-09-19T05:07:29;18.77;;;12.07;;
28078;SDS011;15388;42.238;24.684;2023-09-19T05:09:55;18.52;;;12.77;;
28078;SDS011;15388;42.238;24.684;2023-09-19T05:12:20;20.75;;;13.70;;
28078;SDS011;15388;42.238;24.684;2023-09-19T05:14:46;27.10;;;13.25;;
28078;SDS011;15388;42.238;24.684;2023-09-19T05:17:12;20.10;;;12.05;;
28078;SDS011;15388;42.238;24.684;2023-09-19T05:19:38;39.53;;;14.13;;
28078;SDS011;15388;42.238;24.684;2023-09-19T05:22:04;21.95;;;12.68;;
28078;SDS011;15388;42.238;24.684;2023-09-19T05:24:29;24.67;;;12.43;;
28078;SDS011;15388;42.238;24.684;2023-09-19T05:26:55;20.33;;;11.50;;
28078;SDS011;15388;42.238;24.684;2023-09-19T05:29:22;15.93;;;12.40;;
28078;SDS011;15388;42.238;24.684;2023-09-19T05:31:47;20.83;;;12.07;;
28078;SDS011;15388;42.238;24.684;2023-09-19T05:34:14;20.52;;;11.27;;
28078;SDS011;15388;42.238;24.684;2023-09-19T05:36:40;17.73;;;12.27;;
28078;SDS011;15388;42.238;24.684;2023-09-19T05:39:05;18.98;;;11.35;;
28078;SDS011;15388;42.238;24.684;2023-09-19T05:41:34;14.50;;;11.75;;
28078;SDS011;15388;42.238;24.684;2023-09-19T05:44:01;17.23;;;11.20;;
28078;SDS011;15388;42.238;24.684;2023-09-19T05:46:27;19.98;;;11.77;;
28078;SDS011;15388;42.238;24.684;2023-09-19T05:48:54;17.23;;;11.32;;
28078;SDS011;15388;42.238;24.684;2023-09-19T05:51:21;15.02;;;11.10;;
28078;SDS011;15388;42.238;24.684;2023-09-19T05:53:48;22.30;;;12.52;;
28078;SDS011;15388;42.238;24.684;2023-09-19T05:56:13;26.63;;;13.13;;
28078;SDS011;15388;42.238;24.684;2023-09-19T05:58:40;27.83;;;13.70;;
28078;SDS011;15388;42.238;24.684;2023-09-19T06:01:08;19.77;;;13.57;;
28078;SDS011;15388;42.238;24.684;2023-09-19T06:03:34;19.80;;;13.30;;
28078;SDS011;15388;42.238;24.684;2023-09-19T06:06:00;19.75;;;13.70;;
28078;SDS011;15388;42.238;24.684;2023-09-19T06:08:26;43.42;;;14.77;;
28078;SDS011;15388;42.238;24.684;2023-09-19T06:10:53;20.75;;;12.85;;
28078;SDS011;15388;42.238;24.684;2023-09-19T06:13:19;21.02;;;13.18;;
28078;SDS011;15388;42.238;24.684;2023-09-19T06:15:45;19.85;;;12.10;;
28078;SDS011;15388;42.238;24.684;2023-09-19T06:18:12;16.13;;;11.50;;
28078;SDS011;15388;42.238;24.684;2023-09-19T06:20:42;16.45;;;11.48;;
28078;SDS011;15388;42.238;24.684;2023-09-19T06:23:09;17.23;;;10.95;;
28078;SDS011;15388;42.238;24.684;2023-09-19T06:25:35;14.85;;;10.85;;
28078;SDS011;15388;42.238;24.684;2023-09-19T06:28:00;20.92;;;11.60;;
28078;SDS011;15388;42.238;24.684;2023-09-19T06:30:29;16.50;;;9.80;;
28078;SDS011;15388;42.238;24.684;2023-09-19T06:32:59;14.10;;;9.93;;
28078;SDS011;15388;42.238;24.684;2023-09-19T06:35:25;16.55;;;10.50;;
28078;SDS011;15388;42.238;24.684;2023-09-19T06:37:52;14.88;;;9.02;;
28078;SDS011;15388;42.238;24.684;2023-09-19T06:40:17;11.95;;;10.25;;
28078;SDS011;15388;42.238;24.684;2023-09-19T06:42:44;18.27;;;9.70;;
28078;SDS011;15388;42.238;24.684;2023-09-19T06:45:15;14.70;;;10.10;;
28078;SDS011;15388;42.238;24.684;2023-09-19T06:47:44;15.85;;;10.60;;
28078;SDS011;15388;42.238;24.684;2023-09-19T06:50:11;11.60;;;9.85;;
28078;SDS011;15388;42.238;24.684;2023-09-19T06:52:42;16.02;;;10.18;;
28078;SDS011;15388;42.238;24.684;2023-09-19T06:55:07;15.20;;;10.60;;
28078;SDS011;15388;42.238;24.684;2023-09-19T06:57:35;13.45;;;10.50;;
28078;SDS011;15388;42.238;24.684;2023-09-19T07:00:01;14.88;;;10.20;;
28078;SDS011;15388;42.238;24.684;2023-09-19T07:02:27;14.95;;;9.75;;
28078;SDS011;15388;42.238;24.684;2023-09-19T07:04:52;12.82;;;9.43;;
28078;SDS011;15388;42.238;24.684;2023-09-19T07:07:18;15.10;;;9.60;;
28078;SDS011;15388;42.238;24.684;2023-09-19T07:09:43;16.23;;;9.18;;
28078;SDS011;15388;42.238;24.684;2023-09-19T07:12:08;14.38;;;9.27;;
28078;SDS011;15388;42.238;24.684;2023-09-19T07:14:34;12.55;;;9.27;;
28078;SDS011;15388;42.238;24.684;2023-09-19T07:16:59;14.38;;;10.57;;
28078;SDS011;15388;42.238;24.684;2023-09-19T07:19:25;18.02;;;8.93;;
28078;SDS011;15388;42.238;24.684;2023-09-19T07:21:53;19.08;;;9.00;;
28078;SDS011;15388;42.238;24.684;2023-09-19T07:24:19;16.45;;;8.85;;
28078;SDS011;15388;42.238;24.684;2023-09-19T07:26:47;18.75;;;9.60;;
28078;SDS011;15388;42.238;24.684;2023-09-19T07:29:13;11.73;;;7.82;;
28078;SDS011;15388;42.238;24.684;2023-09-19T07:31:38;16.02;;;9.05;;
28078;SDS011;15388;42.238;24.684;2023-09-19T07:34:03;8.95;;;7.50;;
28078;SDS011;15388;42.238;24.684;2023-09-19T07:36:30;14.52;;;8.20;;
28078;SDS011;15388;42.238;24.684;2023-09-19T07:38:57;19.48;;;7.78;;
28078;SDS011;15388;42.238;24.684;2023-09-19T07:41:23;10.27;;;7.05;;
28078;SDS011;15388;42.238;24.684;2023-09-19T07:43:49;10.50;;;8.05;;
28078;SDS011;15388;42.238;24.684;2023-09-19T07:46:14;10.48;;;7.28;;
28078;SDS011;15388;42.238;24.684;2023-09-19T07:48:40;10.48;;;7.57;;
28078;SDS011;15388;42.238;24.684;2023-09-19T07:51:05;16.27;;;8.00;;
28078;SDS011;15388;42.238;24.684;2023-09-19T07:53:32;18.38;;;7.57;;
28078;SDS011;15388;42.238;24.684;2023-09-19T07:56:06;11.93;;;7.88;;
28078;SDS011;15388;42.238;24.684;2023-09-19T07:58:32;8.20;;;6.43;;
28078;SDS011;15388;42.238;24.684;2023-09-19T08:01:05;7.47;;;5.50;;
28078;SDS011;15388;42.238;24.684;2023-09-19T08:03:34;11.07;;;5.82;;
28078;SDS011;15388;42.238;24.684;2023-09-19T08:06:04;7.05;;;5.03;;
28078;SDS011;15388;42.238;24.684;2023-09-19T08:08:30;8.18;;;5.22;;
28078;SDS011;15388;42.238;24.684;2023-09-19T08:10:55;9.13;;;5.57;;
28078;SDS011;15388;42.238;24.684;2023-09-19T08:13:25;10.60;;;5.97;;
28078;SDS011;15388;42.238;24.684;2023-09-19T08:15:51;7.88;;;5.47;;
28078;SDS011;15388;42.238;24.684;2023-09-19T08:18:20;7.47;;;5.40;;
28078;SDS011;15388;42.238;24.684;2023-09-19T08:20:50;9.45;;;5.20;;
28078;SDS011;15388;42.238;24.684;2023-09-19T08:23:17;13.77;;;5.13;;
28078;SDS011;15388;42.238;24.684;2023-09-19T08:25:45;64.15;;;9.38;;
28078;SDS011;15388;42.238;24.684;2023-09-19T08:28:11;16.17;;;5.47;;
28078;SDS011;15388;42.238;24.684;2023-09-19T08:30:44;7.47;;;4.85;;
28078;SDS011;15388;42.238;24.684;2023-09-19T08:33:10;6.18;;;4.28;;
28078;SDS011;15388;42.238;24.684;2023-09-19T08:35:36;7.55;;;5.18;;
28078;SDS011;15388;42.238;24.684;2023-09-19T08:38:02;8.48;;;5.40;;
28078;SDS011;15388;42.238;24.684;2023-09-19T08:40:32;7.47;;;4.53;;
28078;SDS011;15388;42.238;24.684;2023-09-19T08:43:01;11.65;;;5.60;;
28078;SDS011;15388;42.238;24.684;2023-09-19T08:45:27;13.10;;;5.45;;
28078;SDS011;15388;42.238;24.684;2023-09-19T08:50:28;7.53;;;5.40;;
28078;SDS011;15388;42.238;24.684;2023-09-19T08:52:59;7.35;;;5.22;;
28078;SDS011;15388;42.238;24.684;2023-09-19T08:55:29;5.60;;;4.60;;
28078;SDS011;15388;42.238;24.684;2023-09-19T08:58:03;9.07;;;5.57;;
28078;SDS011;15388;42.238;24.684;2023-09-19T09:00:31;11.27;;;4.67;;
28078;SDS011;15388;42.238;24.684;2023-09-19T09:02:58;11.80;;;4.17;;
28078;SDS011;15388;42.238;24.684;2023-09-19T09:05:25;6.90;;;4.65;;
28078;SDS011;15388;42.238;24.684;2023-09-19T09:10:19;11.68;;;5.55;;
28078;SDS011;15388;42.238;24.684;2023-09-19T09:12:48;9.10;;;4.35;;
28078;SDS011;15388;42.238;24.684;2023-09-19T09:15:16;5.45;;;4.32;;
28078;SDS011;15388;42.238;24.684;2023-09-19T09:17:46;11.32;;;5.15;;
28078;SDS011;15388;42.238;24.684;2023-09-19T09:20:13;4.78;;;4.32;;
28078;SDS011;15388;42.238;24.684;2023-09-19T09:22:38;9.20;;;4.63;;
28078;SDS011;15388;42.238;24.684;2023-09-19T09:25:09;11.45;;;5.22;;
28078;SDS011;15388;42.238;24.684;2023-09-19T09:27:34;7.10;;;4.47;;
28078;SDS011;15388;42.238;24.684;2023-09-19T09:30:00;13.68;;;5.18;;
28078;SDS011;15388;42.238;24.684;2023-09-19T09:32:26;4.60;;;4.15;;
28078;SDS011;15388;42.238;24.684;2023-09-19T09:35:00;6.28;;;4.47;;
28078;SDS011;15388;42.238;24.684;2023-09-19T09:37:26;8.63;;;4.65;;
28078;SDS011;15388;42.238;24.684;2023-09-19T09:39:55;6.10;;;4.10;;
28078;SDS011;15388;42.238;24.684;2023-09-19T09:45:13;8.15;;;5.28;;
28078;SDS011;15388;42.238;24.684;2023-09-19T09:47:53;7.57;;;4.80;;
28078;SDS011;15388;42.238;24.684;2023-09-19T09:56:06;5.90;;;4.50;;
28078;SDS011;15388;42.238;24.684;2023-09-19T10:01:02;10.73;;;5.68;;
28078;SDS011;15388;42.238;24.684;2023-09-19T10:03:43;5.10;;;3.85;;
28078;SDS011;15388;42.238;24.684;2023-09-19T10:06:14;6.20;;;4.60;;
28078;SDS011;15388;42.238;24.684;2023-09-19T10:09:01;8.15;;;4.38;;
28078;SDS011;15388;42.238;24.684;2023-09-19T10:11:35;7.20;;;4.05;;
28078;SDS011;15388;42.238;24.684;2023-09-19T10:14:11;6.95;;;4.57;;
28078;SDS011;15388;42.238;24.684;2023-09-19T10:16:40;5.57;;;4.28;;
28078;SDS011;15388;42.238;24.684;2023-09-19T10:19:10;8.98;;;4.25;;
28078;SDS011;15388;42.238;24.684;2023-09-19T10:21:40;70.57;;;10.68;;
28078;SDS011;15388;42.238;24.684;2023-09-19T10:24:08;16.75;;;4.60;;
28078;SDS011;15388;42.238;24.684;2023-09-19T10:26:35;9.23;;;5.07;;
28078;SDS011;15388;42.238;24.684;2023-09-19T10:29:02;8.98;;;5.80;;
28078;SDS011;15388;42.238;24.684;2023-09-19T10:31:32;9.18;;;4.80;;
28078;SDS011;15388;42.238;24.684;2023-09-19T10:34:00;10.40;;;4.97;;
28078;SDS011;15388;42.238;24.684;2023-09-19T10:36:29;5.45;;;4.13;;
28078;SDS011;15388;42.238;24.684;2023-09-19T10:38:59;7.75;;;4.72;;
28078;SDS011;15388;42.238;24.684;2023-09-19T10:41:29;7.82;;;4.53;;
28078;SDS011;15388;42.238;24.684;2023-09-19T10:43:59;6.90;;;4.25;;
28078;SDS011;15388;42.238;24.684;2023-09-19T10:46:32;8.15;;;5.10;;
28078;SDS011;15388;42.238;24.684;2023-09-19T10:49:01;5.85;;;4.78;;
28078;SDS011;15388;42.238;24.684;2023-09-19T10:51:31;7.00;;;4.40;;
28078;SDS011;15388;42.238;24.684;2023-09-19T10:54:12;9.00;;;4.90;;
28078;SDS011;15388;42.238;24.684;2023-09-19T10:56:48;6.53;;;4.22;;
28078;SDS011;15388;42.238;24.684;2023-09-19T10:59:16;7.10;;;3.80;;
28078;SDS011;15388;42.238;24.684;2023-09-19T11:01:49;5.55;;;4.65;;
28078;SDS011;15388;42.238;24.684;2023-09-19T11:09:33;6.40;;;4.27;;
28078;SDS011;15388;42.238;24.684;2023-09-19T11:14:54;5.38;;;4.43;;
28078;SDS011;15388;42.238;24.684;2023-09-19T11:30:39;5.70;;;3.92;;
28078;SDS011;15388;42.238;24.684;2023-09-19T11:43:46;8.85;;;3.95;;
28078;SDS011;15388;42.238;24.684;2023-09-19T11:46:12;5.65;;;4.45;;
28078;SDS011;15388;42.238;24.684;2023-09-19T11:48:41;4.82;;;4.32;;
28078;SDS011;15388;42.238;24.684;2023-09-19T11:51:22;16.92;;;5.57;;
28078;SDS011;15388;42.238;24.684;2023-09-19T11:53:52;6.60;;;4.13;;
28078;SDS011;15388;42.238;24.684;2023-09-19T11:56:22;8.95;;;4.78;;
28078;SDS011;15388;42.238;24.684;2023-09-19T11:58:52;10.32;;;4.50;;
28078;SDS011;15388;42.238;24.684;2023-09-19T12:03:55;9.73;;;4.32;;
28078;SDS011;15388;42.238;24.684;2023-09-19T12:06:23;9.30;;;5.22;;
28078;SDS011;15388;42.238;24.684;2023-09-19T12:08:49;5.78;;;5.05;;
28078;SDS011;15388;42.238;24.684;2023-09-19T12:11:16;4.82;;;4.32;;
28078;SDS011;15388;42.238;24.684;2023-09-19T12:13:46;7.28;;;4.32;;
28078;SDS011;15388;42.238;24.684;2023-09-19T12:16:14;6.00;;;4.53;;
28078;SDS011;15388;42.238;24.684;2023-09-19T12:18:42;8.70;;;3.50;;
28078;SDS011;15388;42.238;24.684;2023-09-19T12:21:21;7.22;;;5.03;;
28078;SDS011;15388;42.238;24.684;2023-09-19T12:26:41;8.85;;;4.50;;
28078;SDS011;15388;42.238;24.684;2023-09-19T12:29:26;110.30;;;13.30;;
28078;SDS011;15388;42.238;24.684;2023-09-19T12:31:57;9.07;;;4.80;;
28078;SDS011;15388;42.238;24.684;2023-09-19T12:34:25;6.25;;;3.80;;
28078;SDS011;15388;42.238;24.684;2023-09-19T12:37:04;5.18;;;4.18;;
28078;SDS011;15388;42.238;24.684;2023-09-19T12:40:02;7.47;;;4.00;;
28078;SDS011;15388;42.238;24.684;2023-09-19T12:42:39;6.63;;;3.97;;
28078;SDS011;15388;42.238;24.684;2023-09-19T12:45:07;10.82;;;4.25;;
28078;SDS011;15388;42.238;24.684;2023-09-19T12:47:34;4.38;;;3.50;;
28078;SDS011;15388;42.238;24.684;2023-09-19T12:50:09;6.30;;;4.83;;
28078;SDS011;15388;42.238;24.684;2023-09-19T12:52:47;9.13;;;3.77;;
28078;SDS011;15388;42.238;24.684;2023-09-19T12:58:34;8.60;;;3.90;;
28078;SDS011;15388;42.238;24.684;2023-09-19T13:00:42;8.23;;;4.10;;
28078;SDS011;15388;42.238;24.684;2023-09-19T13:03:18;5.50;;;3.33;;
28078;SDS011;15388;42.238;24.684;2023-09-19T13:05:51;8.25;;;4.40;;
28078;SDS011;15388;42.238;24.684;2023-09-19T13:08:21;8.65;;;3.88;;
28078;SDS011;15388;42.238;24.684;2023-09-19T13:16:06;35.88;;;7.32;;
28078;SDS011;15388;42.238;24.684;2023-09-19T13:18:41;15.07;;;4.20;;
28078;SDS011;15388;42.238;24.684;2023-09-19T13:21:11;22.08;;;5.22;;
28078;SDS011;15388;42.238;24.684;2023-09-19T13:23:43;11.45;;;4.68;;
28078;SDS011;15388;42.238;24.684;2023-09-19T13:26:09;6.75;;;3.85;;
28078;SDS011;15388;42.238;24.684;2023-09-19T13:28:35;9.38;;;4.47;;
28078;SDS011;15388;42.238;24.684;2023-09-19T13:31:02;4.00;;;3.63;;
28078;SDS011;15388;42.238;24.684;2023-09-19T13:33:28;5.10;;;4.17;;
28078;SDS011;15388;42.238;24.684;2023-09-19T13:35:53;4.17;;;3.60;;
28078;SDS011;15388;42.238;24.684;2023-09-19T13:38:20;5.93;;;4.25;;
28078;SDS011;15388;42.238;24.684;2023-09-19T13:40:47;8.00;;;4.50;;
28078;SDS011;15388;42.238;24.684;2023-09-19T13:43:14;9.30;;;4.38;;
28078;SDS011;15388;42.238;24.684;2023-09-19T13:45:40;6.73;;;4.47;;
28078;SDS011;15388;42.238;24.684;2023-09-19T13:48:09;7.90;;;4.10;;
28078;SDS011;15388;42.238;24.684;2023-09-19T13:50:38;7.82;;;4.65;;
28078;SDS011;15388;42.238;24.684;2023-09-19T13:53:07;52.92;;;6.93;;
28078;SDS011;15388;42.238;24.684;2023-09-19T13:55:33;10.13;;;4.35;;
28078;SDS011;15388;42.238;24.684;2023-09-19T13:57:58;7.57;;;4.47;;
28078;SDS011;15388;42.238;24.684;2023-09-19T14:00:25;9.52;;;3.95;;
28078;SDS011;15388;42.238;24.684;2023-09-19T14:02:51;8.27;;;4.73;;
28078;SDS011;15388;42.238;24.684;2023-09-19T14:05:17;5.78;;;4.03;;
28078;SDS011;15388;42.238;24.684;2023-09-19T14:07:42;7.67;;;4.37;;
28078;SDS011;15388;42.238;24.684;2023-09-19T14:10:09;8.05;;;4.22;;
28078;SDS011;15388;42.238;24.684;2023-09-19T14:12:39;7.55;;;4.63;;
28078;SDS011;15388;42.238;24.684;2023-09-19T14:15:09;6.18;;;4.07;;
28078;SDS011;15388;42.238;24.684;2023-09-19T14:17:38;8.10;;;3.88;;
28078;SDS011;15388;42.238;24.684;2023-09-19T14:20:07;6.18;;;4.20;;
28078;SDS011;15388;42.238;24.684;2023-09-19T14:22:35;11.52;;;4.53;;
28078;SDS011;15388;42.238;24.684;2023-09-19T14:25:01;6.80;;;4.45;;
28078;SDS011;15388;42.238;24.684;2023-09-19T14:27:29;11.35;;;4.32;;
28078;SDS011;15388;42.238;24.684;2023-09-19T14:29:54;11.43;;;4.03;;
28078;SDS011;15388;42.238;24.684;2023-09-19T14:32:21;4.60;;;4.20;;
28078;SDS011;15388;42.238;24.684;2023-09-19T14:34:47;12.50;;;4.80;;
28078;SDS011;15388;42.238;24.684;2023-09-19T14:37:13;7.67;;;4.17;;
28078;SDS011;15388;42.238;24.684;2023-09-19T14:39:39;8.43;;;4.03;;
28078;SDS011;15388;42.238;24.684;2023-09-19T14:44:31;7.73;;;4.10;;
28078;SDS011;15388;42.238;24.684;2023-09-19T14:46:56;12.60;;;4.63;;
28078;SDS011;15388;42.238;24.684;2023-09-19T14:49:21;12.13;;;4.43;;
28078;SDS011;15388;42.238;24.684;2023-09-19T14:51:47;8.73;;;4.60;;
28078;SDS011;15388;42.238;24.684;2023-09-19T14:54:13;7.87;;;4.87;;
28078;SDS011;15388;42.238;24.684;2023-09-19T14:56:41;7.45;;;4.53;;
28078;SDS011;15388;42.238;24.684;2023-09-19T14:59:07;11.67;;;4.97;;
28078;SDS011;15388;42.238;24.684;2023-09-19T15:01:33;10.37;;;4.77;;
28078;SDS011;15388;42.238;24.684;2023-09-19T15:03:58;13.63;;;4.68;;
28078;SDS011;15388;42.238;24.684;2023-09-19T15:06:25;7.18;;;4.30;;
28078;SDS011;15388;42.238;24.684;2023-09-19T15:08:51;12.70;;;4.90;;
28078;SDS011;15388;42.238;24.684;2023-09-19T15:11:16;6.07;;;4.35;;
28078;SDS011;15388;42.238;24.684;2023-09-19T15:13:43;5.17;;;4.03;;
28078;SDS011;15388;42.238;24.684;2023-09-19T15:18:36;34.97;;;6.75;;
28078;SDS011;15388;42.238;24.684;2023-09-19T15:21:06;8.57;;;4.35;;
28078;SDS011;15388;42.238;24.684;2023-09-19T15:23:33;11.60;;;5.40;;
28078;SDS011;15388;42.238;24.684;2023-09-19T15:26:02;7.82;;;4.30;;
28078;SDS011;15388;42.238;24.684;2023-09-19T15:28:28;11.88;;;4.95;;
28078;SDS011;15388;42.238;24.684;2023-09-19T15:31:04;13.85;;;5.43;;
28078;SDS011;15388;42.238;24.684;2023-09-19T15:33:31;10.93;;;4.68;;
28078;SDS011;15388;42.238;24.684;2023-09-19T15:38:30;14.02;;;4.45;;
28078;SDS011;15388;42.238;24.684;2023-09-19T15:40:59;12.23;;;5.18;;
28078;SDS011;15388;42.238;24.684;2023-09-19T15:43:25;7.15;;;5.07;;
28078;SDS011;15388;42.238;24.684;2023-09-19T15:45:50;8.02;;;4.50;;
28078;SDS011;15388;42.238;24.684;2023-09-19T15:48:16;22.57;;;4.70;;
28078;SDS011;15388;42.238;24.684;2023-09-19T15:50:43;13.05;;;5.20;;
28078;SDS011;15388;42.238;24.684;2023-09-19T15:53:09;18.98;;;6.05;;
28078;SDS011;15388;42.238;24.684;2023-09-19T15:55:38;13.23;;;4.82;;
28078;SDS011;15388;42.238;24.684;2023-09-19T15:58:05;52.53;;;6.80;;